createdAt,value
2023-01-17T00:02:20.243Z,97774.09
2023-01-17T00:05:05.418Z,97770.19
2023-01-17T00:07:50.271Z,97769.91
2023-01-17T00:10:18.066Z,97770.06
2023-01-17T00:12:52.190Z,97772.72
2023-01-17T00:15:19.982Z,97774.81
2023-01-17T00:17:47.415Z,97759.13
2023-01-17T00:20:33.126Z,97763.28
2023-01-17T00:23:18.012Z,97760.94
2023-01-17T00:26:03.088Z,97764.03
2023-01-17T00:28:30.855Z,97759.47
2023-01-17T00:30:57.190Z,97770.59
2023-01-17T00:33:24.419Z,97775.53
2023-01-17T00:35:51.779Z,97790.78
2023-01-17T00:38:19.660Z,97774.47
2023-01-17T00:40:46.237Z,97790.56
2023-01-17T00:43:31.997Z,97793.81
2023-01-17T00:46:17.362Z,97816.19
2023-01-17T00:49:02.493Z,97817.22
2023-01-17T00:51:48.223Z,97819.09
2023-01-17T00:54:33.185Z,97825.44
2023-01-17T00:57:18.143Z,97822.38
2023-01-17T01:00:03.462Z,97838.03
2023-01-17T01:02:48.452Z,97845.22
2023-01-17T01:05:34.259Z,97848.06
2023-01-17T01:08:19.925Z,97850.56
2023-01-17T01:11:05.685Z,97862.25
2023-01-17T01:13:51.069Z,97874.16
2023-01-17T01:16:36.148Z,97876.81
2023-01-17T01:19:21.363Z,97888.56
2023-01-17T01:22:06.442Z,97878.72
2023-01-17T01:24:51.537Z,97884.91
2023-01-17T01:27:36.321Z,97897.00
2023-01-17T01:30:22.310Z,97886.94
2023-01-17T01:33:07.367Z,97896.19
2023-01-17T01:35:33.700Z,97909.16
2023-01-17T01:38:01.689Z,97898.84
2023-01-17T01:40:28.025Z,97911.66
2023-01-17T01:42:55.733Z,97913.09
2023-01-17T01:45:23.476Z,97918.66
2023-01-17T01:47:50.959Z,97926.06
2023-01-17T01:50:19.333Z,97920.72
2023-01-17T01:52:47.863Z,97934.31
2023-01-17T01:55:25.997Z,97935.53
2023-01-17T01:57:54.004Z,97950.94
2023-01-17T02:00:24.811Z,97950.72
2023-01-17T02:02:53.454Z,97954.03
2023-01-17T02:05:20.953Z,97962.25
2023-01-17T02:07:53.358Z,97965.97
2023-01-17T02:10:19.935Z,97968.47
2023-01-17T02:12:46.833Z,97966.19
2023-01-17T02:15:13.293Z,97967.66
2023-01-17T02:17:49.772Z,97982.06
2023-01-17T02:20:16.232Z,97985.16
2023-01-17T02:22:54.136Z,97989.47
2023-01-17T02:25:23.653Z,97989.25
2023-01-17T02:27:50.067Z,97997.47
2023-01-17T02:30:34.946Z,98006.88
2023-01-17T02:33:09.016Z,98007.13
2023-01-17T02:35:40.261Z,98012.03
2023-01-17T02:38:16.496Z,98009.16
2023-01-17T02:40:48.795Z,98014.72
2023-01-17T02:43:16.284Z,98023.94
2023-01-17T02:45:42.801Z,98015.53
2023-01-17T02:48:10.936Z,98023.63
2023-01-17T02:50:49.448Z,98025.69
2023-01-17T02:53:18.749Z,98025.69
2023-01-17T02:55:45.097Z,98042.31
2023-01-17T02:58:17.462Z,98039.03
2023-01-17T03:01:03.033Z,98043.75
2023-01-17T03:03:44.843Z,98042.34
2023-01-17T03:06:17.316Z,98042.94
2023-01-17T03:08:44.937Z,98054.03
2023-01-17T03:11:12.475Z,98050.97
2023-01-17T03:13:38.813Z,98038.41
2023-01-17T03:16:07.876Z,98040.88
2023-01-17T03:18:34.561Z,98040.47
2023-01-17T03:21:00.873Z,98042.72
2023-01-17T03:23:27.220Z,98043.94
2023-01-17T03:25:53.572Z,98049.47
2023-01-17T03:28:19.930Z,98048.47
2023-01-17T03:30:46.323Z,98058.31
2023-01-17T03:33:12.614Z,98061.41
2023-01-17T03:35:38.962Z,98060.97
2023-01-17T03:38:05.280Z,98064.50
2023-01-17T03:40:31.577Z,98060.78
2023-01-17T03:42:57.931Z,98077.44
2023-01-17T03:45:24.325Z,98074.16
2023-01-17T03:47:50.696Z,98075.19
2023-01-17T03:50:17.188Z,98076.63
2023-01-17T03:52:43.544Z,98072.91
2023-01-17T03:55:10.025Z,98074.16
2023-01-17T03:57:36.410Z,98079.91
2023-01-17T04:00:03.262Z,98085.88
2023-01-17T04:02:29.583Z,98097.97
2023-01-17T04:04:55.980Z,98088.13
2023-01-17T04:07:22.885Z,98096.75
2023-01-17T04:09:49.273Z,98095.13
2023-01-17T04:12:15.637Z,98107.25
2023-01-17T04:14:41.954Z,98102.94
2023-01-17T04:17:16.340Z,98100.69
2023-01-17T04:19:42.724Z,98102.50
2023-01-17T04:22:09.082Z,98100.44
2023-01-17T04:24:35.753Z,98096.56
2023-01-17T04:27:03.580Z,98097.16
2023-01-17T04:29:29.888Z,98093.28
2023-01-17T04:31:56.364Z,98088.34
2023-01-17T04:34:22.759Z,98094.69
2023-01-17T04:36:49.079Z,98090.81
2023-01-17T04:39:15.410Z,98086.47
2023-01-17T04:41:41.844Z,98085.88
2023-01-17T04:44:08.200Z,98084.25
2023-01-17T04:46:34.513Z,98088.53
2023-01-17T04:49:00.938Z,98081.16
2023-01-17T04:51:27.225Z,98087.72
2023-01-17T04:53:53.557Z,98087.94
2023-01-17T04:56:19.997Z,98095.13
2023-01-17T04:58:46.311Z,98097.78
2023-01-17T05:01:12.784Z,98101.31
2023-01-17T05:03:39.175Z,98096.16
2023-01-17T05:06:05.647Z,98100.03
2023-01-17T05:08:33.833Z,98100.91
2023-01-17T05:11:00.181Z,98104.16
2023-01-17T05:13:26.565Z,98105.00
2023-01-17T05:15:53.157Z,98096.97
2023-01-17T05:18:19.578Z,98096.38
2023-01-17T05:20:46.014Z,98098.41
2023-01-17T05:23:12.458Z,98102.91
2023-01-17T05:25:44.238Z,98111.16
2023-01-17T05:28:12.254Z,98113.63
2023-01-17T05:30:38.811Z,98116.50
2023-01-17T05:33:05.191Z,98115.44
2023-01-17T05:35:35.011Z,98121.84
2023-01-17T05:38:01.561Z,98118.13
2023-01-17T05:40:29.245Z,98128.41
2023-01-17T05:42:56.689Z,98123.88
2023-01-17T05:45:24.064Z,98135.41
2023-01-17T05:47:51.310Z,98125.94
2023-01-17T05:50:19.999Z,98129.66
2023-01-17T05:52:50.410Z,98131.47
2023-01-17T05:55:16.935Z,98133.75
2023-01-17T05:57:43.263Z,98140.75
2023-01-17T06:00:09.851Z,98132.31
2023-01-17T06:02:36.272Z,98140.75
2023-01-17T06:05:03.609Z,98144.44
2023-01-17T06:07:30.041Z,98151.22
2023-01-17T06:09:56.404Z,98149.81
2023-01-17T06:12:22.809Z,98151.88
2023-01-17T06:14:49.132Z,98149.78
2023-01-17T06:17:15.463Z,98150.63
2023-01-17T06:19:41.848Z,98151.44
2023-01-17T06:22:08.523Z,98146.09
2023-01-17T06:24:34.859Z,98140.31
2023-01-17T06:27:01.169Z,98142.16
2023-01-17T06:29:27.662Z,98153.06
2023-01-17T06:31:54.070Z,98149.16
2023-01-17T06:34:20.405Z,98154.28
2023-01-17T06:36:46.789Z,98151.00
2023-01-17T06:39:15.041Z,98154.66
2023-01-17T06:41:41.677Z,98151.56
2023-01-17T06:44:08.945Z,98156.28
2023-01-17T06:46:35.430Z,98159.16
2023-01-17T06:49:01.969Z,98157.91
2023-01-17T06:51:28.237Z,98118.03
2023-01-17T06:53:54.572Z,98160.78
2023-01-17T06:56:21.313Z,98162.00
2023-01-17T06:58:51.415Z,98167.56
2023-01-17T07:01:18.313Z,98167.16
2023-01-17T07:03:44.839Z,98166.75
2023-01-17T07:06:11.338Z,98170.06
2023-01-17T07:08:37.799Z,98173.13
2023-01-17T07:11:05.208Z,98168.59
2023-01-17T07:13:36.268Z,98177.63
2023-01-17T07:16:03.673Z,98175.56
2023-01-17T07:18:30.258Z,98172.66
2023-01-17T07:20:56.669Z,98175.13
2023-01-17T07:23:23.739Z,98177.38
2023-01-17T07:25:53.676Z,98169.19
2023-01-17T07:28:20.437Z,98175.16
2023-01-17T07:30:46.901Z,98167.78
2023-01-17T07:33:13.279Z,98171.53
2023-01-17T07:35:39.697Z,98168.22
2023-01-17T07:38:11.186Z,98168.25
2023-01-17T07:40:42.036Z,98167.25
2023-01-17T07:43:14.043Z,98177.31
2023-01-17T07:45:41.288Z,98179.13
2023-01-17T07:48:07.666Z,98167.84
2023-01-17T07:50:34.001Z,98164.97
2023-01-17T07:53:00.371Z,98171.75
2023-01-17T07:55:26.710Z,98177.09
2023-01-17T07:57:53.104Z,98170.31
2023-01-17T08:00:19.662Z,98171.56
2023-01-17T08:02:46.007Z,98172.38
2023-01-17T08:05:12.319Z,98173.22
2023-01-17T08:07:38.635Z,98171.16
2023-01-17T08:10:06.651Z,98172.81
2023-01-17T08:12:33.985Z,98171.16
2023-01-17T08:15:00.370Z,98170.34
2023-01-17T08:17:27.172Z,98173.84
2023-01-17T08:19:53.577Z,98181.44
2023-01-17T08:22:19.868Z,98175.47
2023-01-17T08:24:46.231Z,98174.44
2023-01-17T08:27:12.572Z,98168.28
2023-01-17T08:29:42.012Z,98167.47
2023-01-17T08:32:08.363Z,98162.53
2023-01-17T08:34:34.679Z,98165.81
2023-01-17T08:37:01.000Z,98167.03
2023-01-17T08:39:27.549Z,98168.28
2023-01-17T08:41:53.838Z,98171.56
2023-01-17T08:44:20.312Z,98179.59
2023-01-17T08:46:46.655Z,98176.09
2023-01-17T08:49:12.984Z,98180.19
2023-01-17T08:51:40.007Z,98187.41
2023-01-17T08:54:06.485Z,98185.16
2023-01-17T08:56:32.917Z,98188.81
2023-01-17T08:58:59.252Z,98185.94
2023-01-17T09:01:25.636Z,98195.84
2023-01-17T09:03:52.327Z,98199.50
2023-01-17T09:06:18.743Z,98205.69
2023-01-17T09:08:49.521Z,98203.22
2023-01-17T09:11:16.863Z,98209.81
2023-01-17T09:13:43.843Z,98200.78
2023-01-17T09:16:10.214Z,98200.38
2023-01-17T09:18:37.141Z,98203.66
2023-01-17T09:21:09.913Z,98200.97
2023-01-17T09:23:36.228Z,98200.56
2023-01-17T09:26:02.522Z,98188.44
2023-01-17T09:28:28.847Z,98192.34
2023-01-17T09:30:55.221Z,98195.84
2023-01-17T09:33:24.241Z,98191.31
2023-01-17T09:35:50.599Z,98201.81
2023-01-17T09:38:17.115Z,98209.63
2023-01-17T09:40:47.808Z,98210.63
2023-01-17T09:43:23.343Z,98208.59
2023-01-17T09:45:50.261Z,98211.28
2023-01-17T09:48:21.577Z,98210.66
2023-01-17T09:50:52.268Z,98219.88
2023-01-17T09:53:22.635Z,98213.72
2023-01-17T09:56:10.446Z,98221.75
2023-01-17T09:58:45.909Z,98215.59
2023-01-17T10:01:15.578Z,98220.53
2023-01-17T10:03:43.959Z,98220.09
2023-01-17T10:06:19.805Z,98216.81
2023-01-17T10:08:55.304Z,98220.13
2023-01-17T10:11:40.787Z,98213.13
2023-01-17T10:14:29.095Z,98222.56
2023-01-17T10:17:16.487Z,98220.72
2023-01-17T10:19:49.076Z,98218.25
2023-01-17T10:22:26.663Z,98222.16
2023-01-17T10:25:00.148Z,98226.47
2023-01-17T10:27:34.617Z,98222.16
2023-01-17T10:30:02.820Z,98217.44
2023-01-17T10:32:32.253Z,98208.59
2023-01-17T10:35:02.745Z,98219.50
2023-01-17T10:37:29.086Z,98218.06
2023-01-17T10:39:57.674Z,98215.56
2023-01-17T10:42:27.118Z,98216.63
2023-01-17T10:44:59.180Z,98211.47
2023-01-17T10:47:29.128Z,98215.59
2023-01-17T10:49:58.336Z,98215.59
2023-01-17T10:52:35.802Z,98218.44
2023-01-17T10:55:08.621Z,98218.00
2023-01-17T10:57:39.867Z,98219.25
2023-01-17T11:00:26.572Z,98206.47
2023-01-17T11:02:53.033Z,98208.13
2023-01-17T11:05:28.213Z,98212.41
2023-01-17T11:07:58.892Z,98206.34
2023-01-17T11:10:37.909Z,98198.91
2023-01-17T11:13:06.078Z,98196.25
2023-01-17T11:15:34.715Z,98200.34
2023-01-17T11:18:02.907Z,98192.75
2023-01-17T11:20:36.478Z,98196.47
2023-01-17T11:23:03.174Z,98192.56
2023-01-17T11:25:32.889Z,98197.47
2023-01-17T11:28:04.363Z,98190.28
2023-01-17T11:30:30.742Z,98185.34
2023-01-17T11:32:58.665Z,98186.81
2023-01-17T11:35:27.680Z,98182.47
2023-01-17T11:38:04.996Z,98172.44
2023-01-17T11:40:36.238Z,98174.91
2023-01-17T11:43:11.833Z,98176.16
2023-01-17T11:45:39.325Z,98179.47
2023-01-17T11:48:08.662Z,98174.13
2023-01-17T11:50:37.338Z,98182.97
2023-01-17T11:53:17.194Z,98178.88
2023-01-17T11:55:57.408Z,98184.22
2023-01-17T11:58:25.039Z,98180.09
2023-01-17T12:00:59.363Z,98175.38
2023-01-17T12:03:31.749Z,98164.44
2023-01-17T12:06:25.954Z,98168.16
2023-01-17T12:08:55.042Z,98169.22
2023-01-17T12:11:27.809Z,98174.72
2023-01-17T12:14:15.453Z,98176.16
2023-01-17T12:16:53.487Z,98165.44
2023-01-17T12:19:36.563Z,98160.50
2023-01-17T12:22:15.674Z,98154.97
2023-01-17T12:24:52.438Z,98156.22
2023-01-17T12:27:34.549Z,98149.59
2023-01-17T12:30:03.878Z,98152.09
2023-01-17T12:32:33.351Z,98138.09
2023-01-17T12:35:20.842Z,98140.19
2023-01-17T12:37:57.469Z,98139.41
2023-01-17T12:40:40.570Z,98137.53
2023-01-17T12:43:14.623Z,98142.66
2023-01-17T12:45:43.317Z,98129.50
2023-01-17T12:48:15.716Z,98135.47
2023-01-17T12:50:57.179Z,98135.28
2023-01-17T12:53:31.572Z,98129.13
2023-01-17T12:56:10.355Z,98124.59
2023-01-17T12:58:41.305Z,98125.25
2023-01-17T13:01:21.819Z,98123.59
2023-01-17T13:04:06.982Z,98120.09
2023-01-17T13:06:45.500Z,98113.94
2023-01-17T13:09:15.454Z,98107.75
2023-01-17T13:11:46.572Z,98114.56
2023-01-17T13:14:13.073Z,98116.59
2023-01-17T13:16:53.752Z,98107.97
2023-01-17T13:19:29.691Z,98115.97
2023-01-17T13:21:56.881Z,98115.19
2023-01-17T13:24:31.066Z,98123.00
2023-01-17T13:27:02.243Z,98122.56
2023-01-17T13:29:47.627Z,98130.59
2023-01-17T13:32:18.526Z,98127.50
2023-01-17T13:35:01.756Z,98127.50
2023-01-17T13:37:49.001Z,98124.63
2023-01-17T13:40:34.318Z,98123.78
2023-01-17T13:43:01.614Z,98099.56
2023-01-17T13:45:35.447Z,98127.28
2023-01-17T13:48:20.091Z,98130.13
2023-01-17T13:50:46.452Z,98134.03
2023-01-17T13:53:32.171Z,98125.16
2023-01-17T13:56:21.824Z,98123.72
2023-01-17T13:58:50.218Z,98123.06
2023-01-17T14:01:22.785Z,98136.84
2023-01-17T14:04:01.728Z,98122.22
2023-01-17T14:06:44.752Z,98129.41
2023-01-17T14:09:29.715Z,98132.91
2023-01-17T14:11:56.477Z,98127.72
2023-01-17T14:14:44.254Z,98133.69
2023-01-17T14:17:20.482Z,98126.47
2023-01-17T14:19:48.335Z,98127.91
2023-01-17T14:22:20.820Z,98128.28
2023-01-17T14:25:09.557Z,98131.38
2023-01-17T14:27:42.008Z,98123.16
2023-01-17T14:30:17.886Z,98123.16
2023-01-17T14:33:02.989Z,98131.38
2023-01-17T14:35:34.604Z,98129.97
2023-01-17T14:38:03.156Z,98125.25
2023-01-17T14:40:31.273Z,98130.81
2023-01-17T14:43:07.013Z,98122.38
2023-01-17T14:45:34.436Z,98128.75
2023-01-17T14:48:13.172Z,98121.38
2023-01-17T14:50:40.581Z,98124.25
2023-01-17T14:53:10.512Z,98117.84
2023-01-17T14:55:37.287Z,98121.56
2023-01-17T14:58:03.713Z,98123.22
2023-01-17T15:00:30.290Z,98130.66
2023-01-17T15:02:57.776Z,98118.72
2023-01-17T15:05:25.211Z,98123.03
2023-01-17T15:07:53.034Z,98127.34
2023-01-17T15:10:25.055Z,98126.94
2023-01-17T15:12:52.228Z,98122.78
2023-01-17T15:15:37.288Z,98126.72
2023-01-17T15:18:25.386Z,98126.56
2023-01-17T15:20:54.819Z,98121.22
2023-01-17T15:23:22.147Z,98131.13
2023-01-17T15:25:49.316Z,98126.59
2023-01-17T15:28:16.195Z,98132.78
2023-01-17T15:31:01.483Z,98135.91
2023-01-17T15:33:29.705Z,98137.97
2023-01-17T15:36:00.404Z,98137.16
2023-01-17T15:38:26.937Z,98124.22
2023-01-17T15:40:53.524Z,98131.03
2023-01-17T15:43:21.497Z,98133.69
2023-01-17T15:45:56.018Z,98131.84
2023-01-17T15:48:31.571Z,98135.78
2023-01-17T15:50:58.828Z,98131.44
2023-01-17T15:53:30.771Z,98133.69
2023-01-17T15:55:57.597Z,98126.50
2023-01-17T15:58:25.300Z,98133.31
2023-01-17T16:00:51.722Z,98137.00
2023-01-17T16:03:21.553Z,98135.59
2023-01-17T16:05:48.174Z,98140.94
2023-01-17T16:08:24.243Z,98145.66
2023-01-17T16:10:53.211Z,98134.97
2023-01-17T16:13:19.864Z,98144.88
2023-01-17T16:15:46.326Z,98143.81
2023-01-17T16:18:15.957Z,98144.22
2023-01-17T16:21:01.515Z,98149.19
2023-01-17T16:23:28.306Z,98162.13
2023-01-17T16:25:54.658Z,98158.84
2023-01-17T16:28:21.098Z,98161.31
2023-01-17T16:30:48.807Z,98159.47
2023-01-17T16:33:15.620Z,98167.47
2023-01-17T16:35:43.014Z,98172.56
2023-01-17T16:38:14.047Z,98175.63
2023-01-17T16:40:41.807Z,98176.25
2023-01-17T16:43:09.297Z,98178.91
2023-01-17T16:45:39.378Z,98180.94
2023-01-17T16:48:05.845Z,98188.78
2023-01-17T16:50:32.244Z,98182.22
2023-01-17T16:52:58.643Z,98189.22
2023-01-17T16:55:25.317Z,98186.72
2023-01-17T16:57:54.100Z,98188.78
2023-01-17T17:00:20.900Z,98193.69
2023-01-17T17:02:51.167Z,98189.97
2023-01-17T17:05:17.801Z,98189.34
2023-01-17T17:07:45.437Z,98186.44
2023-01-17T17:10:14.071Z,98186.19
2023-01-17T17:12:40.793Z,98192.94
2023-01-17T17:15:07.465Z,98198.66
2023-01-17T17:17:37.745Z,98194.31
2023-01-17T17:20:04.822Z,98197.78
2023-01-17T17:22:31.426Z,98202.06
2023-01-17T17:24:57.787Z,98206.72
2023-01-17T17:27:26.478Z,98211.88
2023-01-17T17:29:53.509Z,98214.34
2023-01-17T17:32:20.329Z,98217.66
2023-01-17T17:34:46.663Z,98215.78
2023-01-17T17:37:14.672Z,98214.13
2023-01-17T17:39:42.125Z,98218.22
2023-01-17T17:42:08.726Z,98213.47
2023-01-17T17:44:35.571Z,98219.72
2023-01-17T17:47:01.930Z,98217.69
2023-01-17T17:49:28.288Z,98229.66
2023-01-17T17:51:54.649Z,98228.81
2023-01-17T17:54:22.011Z,98235.38
2023-01-17T17:56:48.890Z,98232.50
2023-01-17T17:59:18.233Z,98232.03
2023-01-17T18:01:45.118Z,98227.50
2023-01-17T18:04:14.784Z,98241.25
2023-01-17T18:06:41.724Z,98244.31
2023-01-17T18:09:09.195Z,98251.66
2023-01-17T18:11:36.410Z,98244.63
2023-01-17T18:14:03.859Z,98251.66
2023-01-17T18:16:31.785Z,98253.06
2023-01-17T18:18:59.000Z,98259.38
2023-01-17T18:21:26.871Z,98259.78
2023-01-17T18:24:00.156Z,98266.47
2023-01-17T18:26:28.579Z,98265.72
2023-01-17T18:28:55.731Z,98262.91
2023-01-17T18:31:25.027Z,98269.81
2023-01-17T18:33:51.980Z,98276.94
2023-01-17T18:36:18.549Z,98274.16
2023-01-17T18:38:46.320Z,98279.22
2023-01-17T18:41:13.926Z,98271.91
2023-01-17T18:43:40.599Z,98277.25
2023-01-17T18:46:07.633Z,98279.59
2023-01-17T18:48:34.393Z,98280.78
2023-01-17T18:51:05.336Z,98283.09
2023-01-17T18:53:33.067Z,98276.88
2023-01-17T18:56:01.638Z,98277.84
2023-01-17T18:58:29.070Z,98282.25
2023-01-17T19:00:55.625Z,98285.38
2023-01-17T19:03:31.529Z,98284.13
2023-01-17T19:06:00.484Z,98285.56
2023-01-17T19:08:28.676Z,98287.72
2023-01-17T19:10:55.059Z,98283.03
2023-01-17T19:13:21.358Z,98291.16
2023-01-17T19:15:47.653Z,98289.13
2023-01-17T19:18:14.035Z,98296.09
2023-01-17T19:20:40.690Z,98292.91
2023-01-17T19:23:07.082Z,98302.03
2023-01-17T19:25:36.656Z,98294.75
2023-01-17T19:28:03.460Z,98294.00
2023-01-17T19:30:29.903Z,98309.13
2023-01-17T19:32:56.171Z,98314.25
2023-01-17T19:35:22.989Z,98318.78
2023-01-17T19:37:50.801Z,98317.56
2023-01-17T19:40:18.800Z,98321.03
2023-01-17T19:42:45.361Z,98324.31
2023-01-17T19:45:13.111Z,98325.72
2023-01-17T19:47:39.702Z,98326.53
2023-01-17T19:50:09.771Z,98329.09
2023-01-17T19:52:36.154Z,98325.59
2023-01-17T19:55:02.971Z,98330.59
2023-01-17T19:57:36.889Z,98340.28
2023-01-17T20:00:08.594Z,98341.75
2023-01-17T20:02:36.982Z,98344.34
2023-01-17T20:05:03.487Z,98348.81
2023-01-17T20:07:31.179Z,98353.97
2023-01-17T20:09:57.864Z,98354.88
2023-01-17T20:12:24.173Z,98360.19
2023-01-17T20:14:50.464Z,98356.78
2023-01-17T20:17:16.829Z,98367.44
2023-01-17T20:19:43.148Z,98365.41
2023-01-17T20:22:09.594Z,98364.25
2023-01-17T20:24:36.458Z,98368.91
2023-01-17T20:27:02.928Z,98375.72
2023-01-17T20:29:29.313Z,98368.28
2023-01-17T20:31:55.736Z,98370.41
2023-01-17T20:34:23.928Z,98374.25
2023-01-17T20:36:50.261Z,98377.81
2023-01-17T20:39:16.714Z,98380.47
2023-01-17T20:41:43.758Z,98371.50
2023-01-17T20:44:12.046Z,98382.78
2023-01-17T20:46:40.985Z,98382.59
2023-01-17T20:49:14.941Z,98383.06
2023-01-17T20:51:43.911Z,98382.88
2023-01-17T20:54:12.889Z,98383.88
2023-01-17T20:56:39.350Z,98350.75
2023-01-17T20:59:07.569Z,98386.38
2023-01-17T21:01:34.982Z,98385.91
2023-01-17T21:04:01.650Z,98391.97
2023-01-17T21:06:27.977Z,98391.78
2023-01-17T21:08:54.258Z,98392.97
2023-01-17T21:11:22.103Z,98394.38
2023-01-17T21:13:48.929Z,98390.31
2023-01-17T21:16:16.745Z,98397.00
2023-01-17T21:18:45.521Z,98404.84
2023-01-17T21:21:12.939Z,98401.41
2023-01-17T21:23:39.980Z,98407.53
2023-01-17T21:26:07.005Z,98412.44
2023-01-17T21:28:34.840Z,98411.03
2023-01-17T21:31:01.441Z,98412.56
2023-01-17T21:33:29.354Z,98414.25
2023-01-17T21:36:05.222Z,98414.66
2023-01-17T21:38:32.732Z,98409.56
2023-01-17T21:40:59.172Z,98411.84
2023-01-17T21:43:25.502Z,98429.09
2023-01-17T21:45:52.349Z,98423.38
2023-01-17T21:48:18.764Z,98417.63
2023-01-17T21:50:45.245Z,98420.28
2023-01-17T21:53:11.675Z,98418.63
2023-01-17T21:55:56.788Z,98415.75
2023-01-17T21:58:42.054Z,98430.47
2023-01-17T22:01:17.996Z,98420.38
2023-01-17T22:03:47.223Z,98425.97
2023-01-17T22:06:13.581Z,98433.47
2023-01-17T22:08:40.551Z,98424.00
2023-01-17T22:11:08.212Z,98431.28
2023-01-17T22:13:35.488Z,98427.69
2023-01-17T22:16:04.172Z,98434.41
2023-01-17T22:18:30.912Z,98431.16
2023-01-17T22:20:57.635Z,98427.28
2023-01-17T22:23:24.122Z,98432.63
2023-01-17T22:25:50.486Z,98439.03
2023-01-17T22:28:16.845Z,98440.41
2023-01-17T22:30:43.290Z,98450.47
2023-01-17T22:33:09.623Z,98442.41
2023-01-17T22:35:35.975Z,98449.34
2023-01-17T22:38:02.357Z,98453.31
2023-01-17T22:40:28.800Z,98449.94
2023-01-17T22:42:55.482Z,98445.59
2023-01-17T22:45:22.112Z,98448.53
2023-01-17T22:47:48.423Z,98447.59
2023-01-17T22:50:14.769Z,98447.50
2023-01-17T22:52:41.858Z,98449.84
2023-01-17T22:55:08.359Z,98446.00
2023-01-17T22:57:34.715Z,98451.19
2023-01-17T23:00:01.125Z,98449.06
2023-01-17T23:02:27.514Z,98451.78
2023-01-17T23:04:53.898Z,98455.78
2023-01-17T23:07:20.263Z,98443.66
2023-01-17T23:09:46.616Z,98451.34
2023-01-17T23:12:12.945Z,98445.63
2023-01-17T23:14:58.133Z,98441.81
2023-01-17T23:17:43.138Z,98454.25
2023-01-17T23:20:10.418Z,98446.22
2023-01-17T23:22:36.790Z,98447.72
2023-01-17T23:25:08.050Z,98443.19
2023-01-17T23:27:54.458Z,98444.22
2023-01-17T23:30:26.002Z,98448.53
2023-01-17T23:32:53.913Z,98450.13
2023-01-17T23:35:21.478Z,98445.00
2023-01-17T23:38:06.740Z,98446.47
2023-01-17T23:40:33.985Z,98443.75
2023-01-17T23:43:18.774Z,98427.81
2023-01-17T23:45:45.314Z,98437.72
2023-01-17T23:48:11.794Z,98442.34
2023-01-17T23:50:39.229Z,98436.00
2023-01-17T23:53:08.557Z,98439.72
2023-01-17T23:55:36.039Z,98434.41
2023-01-17T23:58:02.488Z,98434.31
